Terminal Aerodrome Forecast
Issued by NWS

Home | Current Version | Previous Version | Text Only | Print | Product List | Glossary On
Versions: 1 2 3 4 5 6 7 8 9 10 11 12 13 14 15 16 17
000
FTUS44 KLIX 250219 AAA
TAFMCB
TAF AMD
KMCB 250219Z 2502/2524 14010KT 6SM BR OVC006
     FM251100 21006KT P6SM BKN003
     FM251430 21008KT P6SM BKN025
     FM251800 21010KT P6SM VCTS BKN050CB=

USA.gov is the U.S. government's official web portal to all federal, state and local government web resources and services.